Time;durP1;ratioP1;P1;durP2;ratioP2;P2;SDS_P1;SDS_P2;PMS_P1;PMS_P2;Temp;Humidity;BMP_temperature;BMP_pressure;BME280_temperature;BME280_humidity;BME280_pressure;Samples;Min_cycle;Max_cycle;Signal;HPM_P1;HPM_P2
2021/11/11 00:02:18;;;;;;;29.48;18.52;;;4.10;99.90;;;;;;4996794;28;20261;-69
2021/11/11 00:04:47;;;;;;;27.42;16.40;;;4.10;99.90;;;;;;4997286;28;20214;-69
2021/11/11 00:07:14;;;;;;;31.63;17.80;;;4.10;99.90;;;;;;5014869;28;20175;-69
2021/11/11 00:09:41;;;;;;;27.85;17.02;;;4.10;99.90;;;;;;4996942;28;20219;-70
2021/11/11 00:12:07;;;;;;;25.90;16.88;;;4.10;99.90;;;;;;4996939;28;20175;-69
2021/11/11 00:14:33;;;;;;;25.85;17.20;;;4.10;99.90;;;;;;4996939;28;20218;-70
2021/11/11 00:16:59;;;;;;;30.20;18.27;;;4.00;99.90;;;;;;4996868;28;20221;-69
2021/11/11 00:19:26;;;;;;;26.13;17.53;;;4.10;99.90;;;;;;4996687;28;20692;-70
2021/11/11 00:21:52;;;;;;;26.92;18.48;;;4.00;99.90;;;;;;4996897;28;20716;-69
2021/11/11 00:24:23;;;;;;;31.43;19.97;;;4.00;99.90;;;;;;4996827;28;20234;-71
2021/11/11 00:26:52;;;;;;;30.50;18.27;;;4.10;99.90;;;;;;4996988;28;20417;-69
2021/11/11 00:29:18;;;;;;;29.30;17.85;;;4.10;99.90;;;;;;4996810;28;20668;-70
2021/11/11 00:31:44;;;;;;;26.60;17.63;;;4.10;99.90;;;;;;4997263;28;20520;-71
2021/11/11 00:34:12;;;;;;;30.85;17.92;;;4.00;99.90;;;;;;5014285;28;20535;-70
2021/11/11 00:36:39;;;;;;;28.10;16.17;;;4.10;99.90;;;;;;4995864;28;20309;-71
2021/11/11 00:39:06;;;;;;;26.30;16.80;;;4.00;99.90;;;;;;4996540;28;20724;-71
2021/11/11 00:41:34;;;;;;;27.73;16.33;;;4.10;99.90;;;;;;4997016;28;20190;-71
2021/11/11 00:44:00;;;;;;;49.22;26.00;;;4.00;99.90;;;;;;4996460;28;20211;-71
2021/11/11 00:46:28;;;;;;;23.57;15.60;;;4.00;99.90;;;;;;4996700;28;20178;-71
2021/11/11 00:48:54;;;;;;;23.58;15.82;;;4.00;99.90;;;;;;4996492;28;20398;-71
2021/11/11 00:51:20;;;;;;;24.27;16.60;;;4.00;99.90;;;;;;4996566;28;20175;-71
2021/11/11 00:53:46;;;;;;;23.95;15.65;;;4.00;99.90;;;;;;4996393;28;20698;-70
2021/11/11 00:56:13;;;;;;;29.50;17.88;;;3.90;99.90;;;;;;4996345;28;20195;-70
2021/11/11 00:58:39;;;;;;;24.95;16.45;;;3.90;99.90;;;;;;4996347;28;20183;-71
2021/11/11 01:01:06;;;;;;;29.53;17.50;;;3.90;99.90;;;;;;5012707;28;20207;-71
2021/11/11 01:03:40;;;;;;;30.60;18.05;;;3.90;99.90;;;;;;4996342;28;20421;-70
2021/11/11 01:06:07;;;;;;;30.58;18.92;;;3.90;99.90;;;;;;5013930;28;20637;-71
2021/11/11 01:08:33;;;;;;;29.50;17.88;;;3.80;99.90;;;;;;4996477;28;20740;-69
2021/11/11 01:11:05;;;;;;;28.63;17.50;;;3.80;99.90;;;;;;4996155;28;20230;-69
2021/11/11 01:13:33;;;;;;;33.15;19.00;;;3.70;99.90;;;;;;4995633;28;20683;-71
2021/11/11 01:16:00;;;;;;;26.45;17.10;;;3.70;99.90;;;;;;4996357;28;20652;-70
2021/11/11 01:18:27;;;;;;;27.65;18.77;;;3.70;99.90;;;;;;4996122;28;20282;-71
2021/11/11 01:20:52;;;;;;;28.67;18.23;;;3.70;99.90;;;;;;4996394;28;20289;-70
2021/11/11 01:23:19;;;;;;;27.53;16.67;;;3.70;99.90;;;;;;4996628;28;20258;-71
2021/11/11 01:25:49;;;;;;;28.13;18.88;;;3.70;99.90;;;;;;4996256;28;20513;-71
2021/11/11 01:28:16;;;;;;;30.92;17.73;;;3.60;99.90;;;;;;4996155;28;20183;-71
2021/11/11 01:30:44;;;;;;;27.80;18.05;;;3.70;99.90;;;;;;4996433;28;20211;-71
2021/11/11 01:33:12;;;;;;;31.08;20.60;;;3.60;99.90;;;;;;5013888;28;20279;-69
2021/11/11 01:35:40;;;;;;;36.88;24.35;;;3.70;99.90;;;;;;4995986;28;20211;-71
2021/11/11 01:38:07;;;;;;;36.17;25.23;;;3.70;99.90;;;;;;4995963;28;20187;-69
2021/11/11 01:40:37;;;;;;;36.83;22.40;;;3.70;99.90;;;;;;4996125;28;20245;-70
2021/11/11 01:43:07;;;;;;;27.27;18.85;;;3.70;99.90;;;;;;4996192;28;20183;-71
2021/11/11 01:45:36;;;;;;;27.58;18.85;;;3.70;99.90;;;;;;4995570;28;20211;-71
2021/11/11 01:48:04;;;;;;;30.88;18.30;;;3.70;99.90;;;;;;4996597;28;20278;-71
2021/11/11 01:50:31;;;;;;;28.20;19.08;;;3.70;99.90;;;;;;4999732;28;20207;-71
2021/11/11 01:53:00;;;;;;;29.30;19.63;;;3.70;99.90;;;;;;4999849;28;20618;-71
2021/11/11 01:55:31;;;;;;;37.15;23.85;;;3.70;99.90;;;;;;4999426;28;20203;-70
2021/11/11 01:57:59;;;;;;;36.33;22.55;;;3.70;99.90;;;;;;4999495;28;20510;-69
2021/11/11 02:00:28;;;;;;;37.83;22.45;;;3.70;99.90;;;;;;4999444;28;20676;-70
2021/11/11 02:02:57;;;;;;;38.75;20.85;;;3.70;99.90;;;;;;4999486;28;20290;-69
2021/11/11 02:05:24;;;;;;;34.10;19.90;;;3.70;99.90;;;;;;4999693;28;20199;-71
2021/11/11 02:07:56;;;;;;;32.22;21.58;;;3.70;99.90;;;;;;4999377;28;20190;-69
2021/11/11 02:10:23;;;;;;;31.67;19.60;;;3.70;99.90;;;;;;4999564;28;20203;-70
2021/11/11 02:12:53;;;;;;;30.63;17.20;;;3.70;99.90;;;;;;4999129;28;20182;-71
2021/11/11 02:15:20;;;;;;;27.63;18.95;;;3.70;99.90;;;;;;4999070;28;20203;-69
2021/11/11 02:17:48;;;;;;;28.17;18.15;;;3.70;99.90;;;;;;4999341;28;20214;-70
2021/11/11 02:20:24;;;;;;;25.45;16.08;;;3.70;99.90;;;;;;4998844;28;20227;-69
2021/11/11 02:22:51;;;;;;;29.20;17.58;;;3.70;99.90;;;;;;4999311;28;20174;-69
2021/11/11 02:25:21;;;;;;;29.75;17.98;;;3.70;99.90;;;;;;4999244;28;20199;-68
2021/11/11 02:27:49;;;;;;;26.92;16.27;;;3.70;99.90;;;;;;4999046;28;20179;-71
2021/11/11 02:30:19;;;;;;;24.70;15.38;;;3.70;99.90;;;;;;4998891;28;20221;-71
2021/11/11 02:32:46;;;;;;;36.28;18.92;;;3.70;99.90;;;;;;4998817;28;20190;-69
2021/11/11 02:35:15;;;;;;;25.35;17.27;;;3.70;99.90;;;;;;4999009;28;20217;-71
2021/11/11 02:37:42;;;;;;;23.48;15.15;;;3.60;99.90;;;;;;4998690;28;20223;-71
2021/11/11 02:40:12;;;;;;;21.27;15.30;;;3.60;99.90;;;;;;4998752;28;20719;-71
2021/11/11 02:42:40;;;;;;;23.85;15.60;;;3.60;99.90;;;;;;4998698;28;20187;-71
2021/11/11 02:45:08;;;;;;;25.75;16.73;;;3.60;99.90;;;;;;4998569;28;20214;-69
2021/11/11 02:47:36;;;;;;;24.60;15.95;;;3.60;99.90;;;;;;4998583;28;20592;-71
2021/11/11 02:50:04;;;;;;;23.90;15.32;;;3.60;99.90;;;;;;5015991;28;20207;-70
2021/11/11 02:52:30;;;;;;;25.75;15.77;;;3.60;99.90;;;;;;4998769;28;20171;-71
2021/11/11 02:54:58;;;;;;;25.83;15.35;;;3.60;99.90;;;;;;4998814;28;20265;-70
2021/11/11 02:57:33;;;;;;;24.27;15.63;;;3.60;99.90;;;;;;4998582;28;20715;-69
2021/11/11 03:00:09;;;;;;;26.95;17.05;;;3.60;99.90;;;;;;4997464;28;20258;-69
2021/11/11 03:02:38;;;;;;;27.30;17.17;;;3.60;99.90;;;;;;4998287;28;20270;-69
2021/11/11 03:05:05;;;;;;;27.75;16.58;;;3.60;99.90;;;;;;4998406;28;20211;-68
2021/11/11 03:07:31;;;;;;;24.98;15.05;;;3.60;99.90;;;;;;4998197;28;20183;-70
2021/11/11 03:09:58;;;;;;;22.42;14.77;;;3.50;99.90;;;;;;4998043;28;20214;-69
2021/11/11 03:12:25;;;;;;;25.70;16.42;;;3.50;99.90;;;;;;4997975;28;20203;-71
2021/11/11 03:14:52;;;;;;;33.53;17.37;;;3.40;99.90;;;;;;4997907;28;20257;-71
2021/11/11 03:17:23;;;;;;;23.63;16.05;;;3.40;99.90;;;;;;4998697;28;20783;-71
2021/11/11 03:19:50;;;;;;;29.05;17.08;;;3.40;99.90;;;;;;4997952;28;20227;-69
2021/11/11 03:22:20;;;;;;;29.52;18.65;;;3.40;99.90;;;;;;4998015;28;20182;-69
2021/11/11 03:24:48;;;;;;;30.30;18.58;;;3.40;99.90;;;;;;4998183;28;20219;-70
2021/11/11 03:27:15;;;;;;;26.67;16.92;;;3.40;99.90;;;;;;4998137;28;20636;-71
2021/11/11 03:29:47;;;;;;;29.98;18.40;;;3.30;99.90;;;;;;4997616;28;20211;-71
2021/11/11 03:32:13;;;;;;;35.67;16.55;;;3.30;99.90;;;;;;4997880;28;20190;-69
2021/11/11 03:34:41;;;;;;;28.70;17.10;;;3.30;99.90;;;;;;4997943;28;20683;-69
2021/11/11 03:37:09;;;;;;;26.35;16.05;;;3.30;99.90;;;;;;4997107;28;20680;-70
2021/11/11 03:39:39;;;;;;;26.08;16.73;;;3.30;99.90;;;;;;4997993;28;20235;-69
2021/11/11 03:42:07;;;;;;;34.22;18.50;;;3.20;99.90;;;;;;4997537;28;20180;-69
2021/11/11 03:44:34;;;;;;;36.53;17.75;;;3.20;99.90;;;;;;4997575;28;20211;-69
2021/11/11 03:47:02;;;;;;;35.83;17.90;;;3.20;99.90;;;;;;4997683;28;20636;-69
2021/11/11 03:49:30;;;;;;;31.83;17.63;;;3.10;99.90;;;;;;4997523;28;20226;-71
2021/11/11 03:51:57;;;;;;;32.78;16.90;;;3.10;99.90;;;;;;4997548;28;20175;-71
2021/11/11 03:54:24;;;;;;;29.40;17.65;;;3.10;99.90;;;;;;5015248;28;20205;-71
2021/11/11 03:56:51;;;;;;;22.88;14.98;;;3.10;99.90;;;;;;4997299;28;20179;-71
2021/11/11 03:59:19;;;;;;;34.10;17.88;;;3.00;99.90;;;;;;4997223;28;20647;-70
2021/11/11 04:01:49;;;;;;;31.15;17.55;;;3.00;99.90;;;;;;4996929;28;20187;-71
2021/11/11 04:04:15;;;;;;;29.65;18.13;;;2.90;99.90;;;;;;4997124;28;20206;-69
2021/11/11 04:06:41;;;;;;;25.38;15.93;;;2.90;99.90;;;;;;4997927;28;20660;-70
2021/11/11 04:09:08;;;;;;;24.83;16.10;;;2.80;99.90;;;;;;4997230;28;20337;-71
2021/11/11 04:11:35;;;;;;;21.63;14.57;;;2.80;99.90;;;;;;4997018;28;20179;-71
2021/11/11 04:14:03;;;;;;;24.77;17.27;;;2.80;99.90;;;;;;5014736;28;20175;-71
2021/11/11 04:16:29;;;;;;;34.20;19.38;;;2.80;99.90;;;;;;4997206;28;20187;-69
2021/11/11 04:18:56;;;;;;;32.55;20.67;;;2.70;99.90;;;;;;4997196;28;20235;-69
2021/11/11 04:21:22;;;;;;;37.85;20.70;;;2.70;99.90;;;;;;4997066;28;20595;-68
2021/11/11 04:23:50;;;;;;;36.67;20.85;;;2.70;99.90;;;;;;4996890;28;20179;-70
2021/11/11 04:26:31;;;;;;;30.08;18.70;;;2.70;99.90;;;;;;4996743;28;20187;-68
2021/11/11 04:29:04;;;;;;;30.02;18.08;;;2.70;99.90;;;;;;4996770;28;20187;-69
2021/11/11 04:31:33;;;;;;;29.00;18.38;;;2.60;99.90;;;;;;4996557;28;20191;-70
2021/11/11 04:34:10;;;;;;;29.45;18.27;;;2.60;99.90;;;;;;4996658;28;20704;-71
2021/11/11 05:03:14;;;;;;;19.40;11.95;;;2.20;99.90;;;;;;5014352;28;20167;-71
2021/11/11 05:05:43;;;;;;;20.05;12.85;;;2.10;99.90;;;;;;4996193;28;20206;-71
2021/11/11 05:08:10;;;;;;;18.67;12.20;;;2.10;99.90;;;;;;4996410;28;20648;-70
2021/11/11 05:10:38;;;;;;;19.13;12.43;;;2.10;99.90;;;;;;4996215;28;20557;-70
2021/11/11 05:13:06;;;;;;;19.98;13.30;;;2.10;99.90;;;;;;4996185;28;20175;-69
2021/11/11 05:15:33;;;;;;;18.65;13.55;;;2.20;99.90;;;;;;4996510;28;20687;-71
2021/11/11 05:18:00;;;;;;;20.52;13.43;;;2.20;99.90;;;;;;4996007;28;20190;-69
2021/11/11 05:20:28;;;;;;;25.13;16.10;;;2.20;99.90;;;;;;4995967;28;20699;-70
2021/11/11 05:22:55;;;;;;;23.67;14.88;;;2.20;99.90;;;;;;4996557;28;20233;-71
2021/11/11 05:25:24;;;;;;;22.77;15.40;;;2.30;99.90;;;;;;4999976;28;20213;-70
2021/11/11 05:27:51;;;;;;;25.10;17.10;;;2.30;99.90;;;;;;5013909;28;20668;-70
2021/11/11 05:30:18;;;;;;;20.40;14.82;;;2.30;99.90;;;;;;4987016;28;20243;-71
2021/11/11 05:32:47;;;;;;;23.27;15.15;;;2.30;99.90;;;;;;4981809;28;20279;-70
2021/11/11 05:35:14;;;;;;;18.15;13.30;;;2.40;99.90;;;;;;4992255;28;20207;-69
2021/11/11 05:37:42;;;;;;;17.27;12.45;;;2.40;99.90;;;;;;4993955;28;20771;-71
2021/11/11 05:40:10;;;;;;;17.05;13.07;;;2.40;99.90;;;;;;4984207;28;20227;-69
2021/11/11 05:42:37;;;;;;;20.35;12.80;;;2.40;99.90;;;;;;4991375;28;20557;-70
2021/11/11 05:45:05;;;;;;;23.15;15.00;;;2.50;99.90;;;;;;4988229;28;20250;-70
2021/11/11 05:47:35;;;;;;;21.05;13.82;;;2.50;99.90;;;;;;4991785;28;20183;-70
2021/11/11 05:50:01;;;;;;;19.65;13.60;;;2.50;99.90;;;;;;4966426;28;20250;-69
2021/11/11 05:52:28;;;;;;;17.75;11.57;;;2.60;99.90;;;;;;4981212;28;20196;-69
2021/11/11 05:54:56;;;;;;;24.27;17.48;;;2.60;99.90;;;;;;4979099;28;20692;-71
2021/11/11 05:57:23;;;;;;;19.48;14.60;;;2.60;99.90;;;;;;4982293;28;20195;-69
2021/11/11 05:59:50;;;;;;;22.42;14.65;;;2.70;99.90;;;;;;4993254;28;20229;-70
2021/11/11 06:02:16;;;;;;;18.08;12.90;;;2.70;99.90;;;;;;4981284;28;20191;-70
2021/11/11 06:04:44;;;;;;;20.45;13.27;;;2.70;99.90;;;;;;4968308;28;20212;-69
2021/11/11 06:07:11;;;;;;;16.85;12.40;;;2.80;99.90;;;;;;4979685;28;20243;-70
2021/11/11 06:09:37;;;;;;;17.73;11.52;;;2.80;99.90;;;;;;4991564;28;20222;-69
2021/11/11 06:12:04;;;;;;;20.25;12.85;;;2.80;99.90;;;;;;5002702;28;20680;-71
2021/11/11 06:14:36;;;;;;;19.65;12.60;;;2.90;99.90;;;;;;4991509;28;20251;-70
2021/11/11 06:17:08;;;;;;;17.17;12.30;;;2.90;99.90;;;;;;4986707;28;20199;-71
2021/11/11 06:19:36;;;;;;;18.58;12.30;;;2.90;99.90;;;;;;4975193;28;20219;-70
2021/11/11 06:22:05;;;;;;;21.63;13.48;;;2.90;99.90;;;;;;4971637;28;20203;-71
2021/11/11 06:24:33;;;;;;;23.13;13.20;;;3.00;99.90;;;;;;4970223;28;20215;-69
2021/11/11 06:27:01;;;;;;;20.13;13.88;;;3.00;99.90;;;;;;4985541;28;20194;-69
2021/11/11 06:29:31;;;;;;;18.50;12.55;;;3.00;99.90;;;;;;4986270;28;20310;-69
2021/11/11 06:31:56;;;;;;;21.13;15.20;;;3.10;99.90;;;;;;4980770;28;20246;-69
2021/11/11 06:34:23;;;;;;;18.65;13.30;;;3.10;99.90;;;;;;4988269;28;20238;-71
2021/11/11 06:36:50;;;;;;;24.00;14.75;;;3.10;99.90;;;;;;4980893;28;20315;-70
2021/11/11 06:39:16;;;;;;;21.83;15.18;;;3.10;99.90;;;;;;4984881;28;20238;-72
2021/11/11 06:41:42;;;;;;;21.33;13.82;;;3.20;99.90;;;;;;4983633;28;22069;-68
2021/11/11 06:44:09;;;;;;;23.27;16.00;;;3.20;99.90;;;;;;4985485;28;20195;-71
2021/11/11 06:46:36;;;;;;;24.95;16.15;;;3.20;99.90;;;;;;4980073;28;20191;-69
2021/11/11 06:49:02;;;;;;;27.48;16.33;;;3.20;99.90;;;;;;4987557;28;20187;-70
2021/11/11 06:51:29;;;;;;;21.85;15.10;;;3.30;99.90;;;;;;4972711;28;20202;-71
2021/11/11 06:53:55;;;;;;;26.58;17.50;;;3.40;99.90;;;;;;4956889;28;20208;-69
2021/11/11 06:56:23;;;;;;;24.77;17.33;;;3.50;99.90;;;;;;4978244;28;20184;-71
2021/11/11 06:58:50;;;;;;;28.17;17.67;;;3.50;99.90;;;;;;4969603;28;20636;-69
2021/11/11 07:01:21;;;;;;;22.88;14.65;;;3.60;99.90;;;;;;4970015;28;20328;-71
2021/11/11 07:03:50;;;;;;;24.98;16.58;;;3.70;99.90;;;;;;4981228;28;20191;-69
2021/11/11 07:06:19;;;;;;;26.67;17.48;;;3.80;99.90;;;;;;4988104;28;20211;-71
2021/11/11 07:08:48;;;;;;;26.77;16.73;;;3.90;99.90;;;;;;4985998;28;20533;-69
2021/11/11 07:11:14;;;;;;;28.70;18.00;;;4.00;99.90;;;;;;4980480;28;20294;-69
2021/11/11 07:13:40;;;;;;;23.58;16.70;;;4.10;99.90;;;;;;4976485;28;20641;-71
2021/11/11 07:16:10;;;;;;;26.70;17.48;;;4.20;99.90;;;;;;4972528;28;20220;-70
2021/11/11 07:18:38;;;;;;;27.30;17.25;;;4.30;99.90;;;;;;4976098;28;20198;-71
2021/11/11 07:21:04;;;;;;;23.42;16.40;;;4.40;99.90;;;;;;4977644;28;20224;-71
2021/11/11 07:23:31;;;;;;;22.90;15.43;;;4.50;99.90;;;;;;4989704;28;20279;-69
2021/11/11 07:25:57;;;;;;;23.00;14.80;;;4.60;99.90;;;;;;4975234;28;20327;-71
2021/11/11 07:28:24;;;;;;;22.65;16.13;;;4.70;99.90;;;;;;4992303;28;20826;-71
2021/11/11 07:30:52;;;;;;;25.17;16.38;;;4.90;99.90;;;;;;4983762;28;20738;-69
2021/11/11 07:33:21;;;;;;;21.15;15.52;;;4.90;99.90;;;;;;4983689;28;20683;-71
2021/11/11 07:35:48;;;;;;;21.15;15.52;;;5.10;99.90;;;;;;4973947;28;20204;-71
2021/11/11 07:38:16;;;;;;;25.05;17.50;;;5.20;99.90;;;;;;4977153;28;20191;-69
2021/11/11 07:40:45;;;;;;;25.63;16.25;;;5.20;99.90;;;;;;4984577;28;20215;-71
2021/11/11 07:43:11;;;;;;;26.38;16.10;;;5.30;99.90;;;;;;4986734;28;20195;-69
2021/11/11 07:45:38;;;;;;;24.75;17.08;;;5.40;99.90;;;;;;4979111;28;20485;-71
2021/11/11 07:48:05;;;;;;;23.42;16.45;;;5.50;99.90;;;;;;4971577;28;20363;-71
2021/11/11 07:50:36;;;;;;;24.90;16.83;;;5.60;99.90;;;;;;4967831;28;20206;-71
2021/11/11 07:53:10;;;;;;;19.42;15.80;;;5.70;99.90;;;;;;4982123;28;20274;-71
2021/11/11 07:55:39;;;;;;;26.88;16.73;;;5.90;99.90;;;;;;4968162;28;20219;-71
2021/11/11 07:58:07;;;;;;;23.73;17.05;;;5.90;99.90;;;;;;4984365;28;20191;-71
2021/11/11 08:00:34;;;;;;;25.65;17.52;;;6.00;99.90;;;;;;4972077;28;20227;-69
2021/11/11 08:03:02;;;;;;;25.55;17.25;;;6.10;99.90;;;;;;4977911;28;20211;-69
2021/11/11 08:05:32;;;;;;;25.08;16.40;;;6.20;99.90;;;;;;4984951;28;20207;-71
2021/11/11 08:08:03;;;;;;;25.52;16.90;;;6.30;99.90;;;;;;4968829;28;20187;-71
2021/11/11 08:10:30;;;;;;;20.90;17.25;;;6.30;99.90;;;;;;4985467;28;20207;-71
2021/11/11 08:12:56;;;;;;;27.15;18.92;;;6.40;99.90;;;;;;4971157;28;20195;-71
2021/11/11 08:15:25;;;;;;;21.27;16.67;;;6.40;99.90;;;;;;4972136;28;20211;-70
2021/11/11 08:17:52;;;;;;;23.20;17.67;;;6.50;99.90;;;;;;4988439;28;20185;-69
2021/11/11 08:20:20;;;;;;;23.45;16.33;;;6.70;99.90;;;;;;4977120;28;20224;-70
2021/11/11 08:22:49;;;;;;;25.65;18.40;;;6.80;99.90;;;;;;4964881;28;20211;-71
2021/11/11 08:25:18;;;;;;;23.17;16.83;;;6.90;99.90;;;;;;4947466;28;20253;-72
2021/11/11 08:27:47;;;;;;;28.73;18.95;;;7.00;99.90;;;;;;4958430;28;20192;-69
2021/11/11 08:30:16;;;;;;;37.28;23.73;;;7.10;99.90;;;;;;4965842;28;20238;-70
2021/11/11 08:32:50;;;;;;;25.42;17.05;;;7.30;99.90;;;;;;4981041;28;20219;-71
2021/11/11 08:35:18;;;;;;;23.50;15.98;;;7.80;99.90;;;;;;4995212;28;20211;-69
2021/11/11 08:37:49;;;;;;;22.83;15.70;;;8.30;99.90;;;;;;4995589;28;20228;-70
2021/11/11 08:40:17;;;;;;;20.42;15.10;;;8.80;99.90;;;;;;4974439;28;20318;-70
2021/11/11 08:42:53;;;;;;;17.48;14.45;;;9.10;99.90;;;;;;4974285;28;20191;-71
2021/11/11 08:45:19;;;;;;;19.73;14.32;;;9.40;99.90;;;;;;4974805;28;20673;-71
2021/11/11 08:47:47;;;;;;;17.98;13.85;;;9.40;99.90;;;;;;4986791;28;20187;-69
2021/11/11 08:50:14;;;;;;;17.00;14.48;;;9.60;99.90;;;;;;4998324;28;20675;-72
2021/11/11 08:52:53;;;;;;;18.60;14.13;;;9.60;99.90;;;;;;4980127;28;20195;-69
2021/11/11 08:55:22;;;;;;;18.67;14.55;;;9.70;99.90;;;;;;4976131;28;20210;-70
2021/11/11 08:57:48;;;;;;;18.85;14.00;;;9.90;99.90;;;;;;4978568;28;20546;-69
2021/11/11 09:00:19;;;;;;;17.73;12.97;;;10.20;99.90;;;;;;4980440;28;20231;-70
2021/11/11 09:02:54;;;;;;;16.85;12.95;;;10.60;99.90;;;;;;4973270;28;20437;-69
2021/11/11 09:05:21;;;;;;;18.35;12.65;;;11.20;99.90;;;;;;4982041;28;20252;-72
2021/11/11 09:07:50;;;;;;;15.68;12.10;;;11.70;99.90;;;;;;4985134;28;20187;-72
2021/11/11 09:10:52;;;;;;;16.52;13.07;;;12.20;99.90;;;;;;4991832;28;20478;-69
2021/11/11 09:13:18;;;;;;;16.20;12.95;;;12.80;99.90;;;;;;4974676;28;20704;-69
2021/11/11 09:15:54;;;;;;;15.82;12.60;;;13.20;99.90;;;;;;4972959;28;20199;-70
2021/11/11 09:18:24;;;;;;;16.85;13.50;;;13.40;99.90;;;;;;4991042;28;20227;-70
2021/11/11 09:20:50;;;;;;;18.67;13.98;;;13.50;99.90;;;;;;4979420;28;20242;-72
2021/11/11 09:23:17;;;;;;;18.53;13.97;;;13.50;99.90;;;;;;4985261;28;20566;-71
2021/11/11 09:25:48;;;;;;;17.05;13.70;;;13.50;99.90;;;;;;4977503;28;20511;-72
2021/11/11 09:28:16;;;;;;;16.27;12.63;;;13.40;99.90;;;;;;4966332;28;20200;-70
2021/11/11 09:30:50;;;;;;;18.25;13.30;;;13.10;99.90;;;;;;4978878;28;20230;-72
2021/11/11 09:33:18;;;;;;;16.80;13.30;;;13.10;99.90;;;;;;4976554;28;20223;-69
2021/11/11 09:35:45;;;;;;;14.77;12.80;;;13.10;99.90;;;;;;4979943;28;20504;-72
2021/11/11 09:38:11;;;;;;;16.67;13.73;;;13.20;99.90;;;;;;4979148;28;20194;-70
2021/11/11 09:40:40;;;;;;;17.50;14.10;;;13.40;99.90;;;;;;4995172;28;20215;-70
2021/11/11 09:43:09;;;;;;;17.43;14.33;;;13.40;99.90;;;;;;4975660;28;20436;-69
2021/11/11 09:45:35;;;;;;;21.02;15.38;;;13.40;99.90;;;;;;4974488;28;20464;-69
2021/11/11 09:48:02;;;;;;;18.23;14.50;;;13.40;99.90;;;;;;4973440;28;20194;-70
2021/11/11 09:50:31;;;;;;;19.07;15.87;;;13.30;99.90;;;;;;4971560;28;21078;-72
2021/11/11 09:53:09;;;;;;;17.47;14.40;;;13.20;99.90;;;;;;4989250;28;20447;-70
2021/11/11 10:01:25;;;;;;;17.88;13.60;;;12.80;99.90;;;;;;5350157;23;20237;-70
2021/11/11 10:03:53;;;;;;;18.70;12.75;;;12.70;99.90;;;;;;5024139;28;20216;-68
2021/11/11 10:06:30;;;;;;;15.40;13.50;;;12.60;99.90;;;;;;5029337;28;20193;-71
2021/11/11 10:09:09;;;;;;;20.00;14.00;;;12.50;99.90;;;;;;5033495;28;20442;-69
2021/11/11 10:11:38;;;;;;;16.52;13.65;;;12.50;99.90;;;;;;5045453;28;20433;-71
2021/11/11 10:14:10;;;;;;;19.92;13.65;;;12.50;99.90;;;;;;5038779;28;20268;-73
2021/11/11 10:17:00;;;;;;;17.30;14.27;;;12.60;99.90;;;;;;5027764;28;20268;-71
2021/11/11 10:19:31;;;;;;;17.50;14.07;;;12.60;99.90;;;;;;5028718;28;20894;-68
2021/11/11 10:22:24;;;;;;;16.38;13.40;;;12.60;99.90;;;;;;5049836;28;20835;-71
2021/11/11 10:24:53;;;;;;;15.80;12.50;;;12.50;99.90;;;;;;5024883;28;20575;-73
2021/11/11 10:27:38;;;;;;;14.18;11.73;;;12.50;99.90;;;;;;5029404;28;20443;-70
2021/11/11 10:30:41;;;;;;;12.07;10.07;;;12.40;99.90;;;;;;5033124;28;20233;-72
2021/11/11 10:33:14;;;;;;;13.05;10.80;;;12.40;99.90;;;;;;4993308;28;20189;-72
2021/11/11 10:35:48;;;;;;;15.27;12.10;;;12.30;99.90;;;;;;5031023;28;20583;-72
2021/11/11 10:38:19;;;;;;;15.97;12.57;;;12.30;99.90;;;;;;5030958;28;20449;-69
2021/11/11 10:40:52;;;;;;;15.53;11.53;;;12.30;99.90;;;;;;5033550;28;20499;-72
2021/11/11 10:43:26;;;;;;;16.20;11.27;;;12.30;99.90;;;;;;5048056;28;20435;-70
2021/11/11 10:45:55;;;;;;;16.50;11.60;;;12.30;99.90;;;;;;5034216;28;20245;-70
2021/11/11 10:48:26;;;;;;;15.17;11.80;;;12.40;99.90;;;;;;5031968;28;20447;-72
2021/11/11 10:50:59;;;;;;;12.83;10.97;;;12.40;99.90;;;;;;5030865;28;20800;-72
2021/11/11 10:53:31;;;;;;;14.80;10.87;;;12.30;99.90;;;;;;5032473;28;20534;-70
2021/11/11 10:56:03;;;;;;;14.88;11.10;;;12.30;99.90;;;;;;5033102;28;20951;-70
2021/11/11 10:58:33;;;;;;;14.90;11.70;;;12.40;99.90;;;;;;5034871;28;20543;-72
2021/11/11 11:01:22;;;;;;;16.95;11.50;;;12.40;99.90;;;;;;5024207;28;20570;-73
2021/11/11 11:03:48;;;;;;;16.10;12.23;;;12.40;99.90;;;;;;4999955;28;20530;-72
2021/11/11 11:06:27;;;;;;;15.23;12.53;;;12.50;99.90;;;;;;4999060;28;21394;-70
2021/11/11 11:09:00;;;;;;;15.43;12.80;;;12.50;99.90;;;;;;5009176;28;20453;-72
2021/11/11 11:11:34;;;;;;;17.37;12.67;;;12.60;99.90;;;;;;4998818;28;20433;-72
2021/11/11 11:14:10;;;;;;;17.50;12.80;;;12.70;99.90;;;;;;5009716;28;20432;-72
2021/11/11 11:16:40;;;;;;;15.20;11.97;;;12.70;99.90;;;;;;5005293;28;20452;-72
2021/11/11 11:19:16;;;;;;;14.80;12.13;;;12.80;99.90;;;;;;5003846;28;20901;-72
2021/11/11 11:21:51;;;;;;;17.67;11.70;;;12.80;99.90;;;;;;5000440;28;20439;-70
2021/11/11 11:25:03;;;;;;;16.90;12.53;;;12.90;99.90;;;;;;5011259;28;20518;-71
2021/11/11 11:27:37;;;;;;;13.30;10.97;;;13.00;99.90;;;;;;5009975;28;20434;-71
2021/11/11 11:30:46;;;;;;;14.53;11.93;;;13.00;99.90;;;;;;5006739;28;20442;-72
2021/11/11 11:33:22;;;;;;;15.73;12.73;;;13.00;99.90;;;;;;4992986;28;20473;-70
2021/11/11 11:35:49;;;;;;;15.87;13.20;;;13.10;99.90;;;;;;5011771;28;20804;-70
2021/11/11 11:41:53;;;;;;;15.13;12.10;;;13.10;99.90;;;;;;5620543;23;20517;-69
2021/11/11 11:44:44;;;;;;;14.73;11.23;;;13.10;99.90;;;;;;4978743;28;20420;-73
2021/11/11 11:50:06;;;;;;;12.70;10.87;;;13.20;99.90;;;;;;4988127;28;20480;-72
2021/11/11 11:52:36;;;;;;;13.67;11.53;;;13.20;99.90;;;;;;4971343;28;20424;-70
2021/11/11 11:55:16;;;;;;;17.67;12.00;;;13.30;99.90;;;;;;4970370;28;20474;-70
2021/11/11 12:00:31;;;;;;;13.73;11.47;;;13.30;99.90;;;;;;4987498;28;20497;-72
2021/11/11 12:11:53;;;;;;;12.97;10.43;;;13.30;99.90;;;;;;4978082;28;20973;-72
2021/11/11 12:29:28;;;;;;;13.70;11.10;;;13.40;99.90;;;;;;4982205;28;20468;-71
2021/11/11 12:40:22;;;;;;;14.20;12.20;;;13.60;99.90;;;;;;4984093;28;20521;-72
2021/11/11 12:43:00;;;;;;;14.90;11.33;;;13.60;99.90;;;;;;4950988;28;20451;-72
2021/11/11 12:45:30;;;;;;;18.70;12.90;;;13.60;99.90;;;;;;4953288;28;20553;-72
2021/11/11 12:48:08;;;;;;;16.63;13.03;;;13.60;99.90;;;;;;4953733;28;20438;-71
2021/11/11 12:51:01;;;;;;;14.80;12.27;;;13.60;99.90;;;;;;4955558;28;20512;-72
2021/11/11 12:53:38;;;;;;;15.60;12.23;;;13.60;99.90;;;;;;4954363;28;20947;-72
2021/11/11 12:56:07;;;;;;;13.57;10.47;;;13.60;99.90;;;;;;4958304;28;20463;-72
2021/11/11 12:58:44;;;;;;;15.97;11.70;;;13.60;99.90;;;;;;4952010;28;20439;-72
2021/11/11 13:01:16;;;;;;;19.90;14.23;;;13.70;99.90;;;;;;4946056;28;20572;-71
2021/11/11 13:03:52;;;;;;;16.10;12.63;;;13.70;99.90;;;;;;4961009;28;20482;-72
2021/11/11 13:06:35;;;;;;;18.00;13.37;;;13.80;99.90;;;;;;4943303;28;20456;-72
2021/11/11 13:09:22;;;;;;;16.93;11.97;;;13.80;99.90;;;;;;4949906;28;20443;-71
2021/11/11 13:11:53;;;;;;;17.37;12.40;;;13.90;99.90;;;;;;4953732;28;20979;-72
2021/11/11 13:15:04;;;;;;;15.77;11.77;;;14.00;99.90;;;;;;4961409;28;20466;-72
2021/11/11 13:17:57;;;;;;;15.87;12.07;;;14.00;99.90;;;;;;4966781;28;20412;-72
2021/11/11 13:21:00;;;;;;;16.73;11.87;;;14.10;99.90;;;;;;4932808;29;20573;-73
2021/11/11 13:23:35;;;;;;;16.40;11.90;;;14.10;99.90;;;;;;4940180;28;20833;-72
2021/11/11 14:00:40;;;;;;;12.90;11.03;;;14.90;99.90;;;;;;4968694;28;20600;-72
2021/11/11 14:03:59;;;;;;;13.87;11.23;;;15.00;99.90;;;;;;4954101;28;20460;-72
2021/11/11 15:17:51;;;;;;;15.63;12.23;;;12.90;99.90;;;;;;4970828;28;20935;-71
2021/11/11 15:47:37;;;;;;;30.98;19.70;;;11.60;99.90;;;;;;4983333;28;20527;-73
2021/11/11 16:01:30;;;;;;;37.40;24.23;;;11.00;99.90;;;;;;4980614;28;20257;-70
2021/11/11 16:21:16;;;;;;;44.25;31.08;;;10.60;99.90;;;;;;4987001;28;20239;-72
2021/11/11 16:26:27;;;;;;;46.05;32.05;;;10.60;99.90;;;;;;4989198;28;20196;-71
2021/11/11 16:29:03;;;;;;;45.55;29.30;;;10.50;99.90;;;;;;4972650;28;20267;-70
2021/11/11 16:32:07;;;;;;;43.88;30.10;;;10.40;99.90;;;;;;4993021;28;20249;-71
2021/11/11 16:34:41;;;;;;;47.70;32.90;;;10.30;99.90;;;;;;4971602;28;20266;-69
2021/11/11 16:37:10;;;;;;;43.00;31.13;;;10.30;99.90;;;;;;4975000;28;20188;-69
2021/11/11 16:39:41;;;;;;;49.25;35.58;;;10.20;99.90;;;;;;4973684;28;20294;-68
2021/11/11 16:42:37;;;;;;;262.60;116.13;;;10.10;99.90;;;;;;4961139;28;20323;-71
2021/11/11 16:45:04;;;;;;;508.13;227.05;;;10.10;99.90;;;;;;5050723;23;20263;-73
2021/11/11 16:47:41;;;;;;;169.73;81.93;;;10.00;99.90;;;;;;4990346;28;20184;-72
2021/11/11 16:50:18;;;;;;;369.45;160.10;;;10.00;99.90;;;;;;4975834;28;20227;-71